Time;durP1;ratioP1;P1;durP2;ratioP2;P2;SDS_P1;SDS_P2;PMS_P1;PMS_P2;Temp;Humidity;BMP_temperature;BMP_pressure;BME280_temperature;BME280_humidity;BME280_pressure;Samples;Min_cycle;Max_cycle;Signal;HPM_P1;HPM_P2
2021/11/29 00:02:29;0.00;0.00;0.62;0.00;0.00;0.62;2.17;1.30;;;20.20;26.50;;;;;;2246381;61;20473;-65
2021/11/29 00:05:14;0.00;0.00;0.62;0.00;0.00;0.62;1.80;1.23;;;20.20;26.60;;;;;;2246514;61;20368;-67
2021/11/29 00:08:02;0.00;0.00;0.62;0.00;0.00;0.62;1.90;1.30;;;20.20;26.50;;;;;;2245833;61;20409;-64
2021/11/29 00:10:49;0.00;0.00;0.62;0.00;0.00;0.62;1.70;1.13;;;20.20;26.60;;;;;;2246544;61;20428;-65
2021/11/29 00:13:35;0.00;0.00;0.62;0.00;0.00;0.62;2.00;1.30;;;20.30;26.60;;;;;;2246982;61;20380;-66
2021/11/29 00:16:20;0.00;0.00;0.62;0.00;0.00;0.62;1.67;1.20;;;20.30;26.50;;;;;;2246227;61;20381;-68
2021/11/29 00:19:06;0.00;0.00;0.62;0.00;0.00;0.62;2.70;1.30;;;20.20;26.30;;;;;;2246325;61;20446;-66
2021/11/29 00:21:51;0.00;0.00;0.62;0.00;0.00;0.62;1.80;1.33;;;20.20;26.10;;;;;;2246928;61;20406;-68
2021/11/29 00:24:37;0.00;0.00;0.62;0.00;0.00;0.62;1.80;1.17;;;20.20;26.00;;;;;;2246667;61;20477;-68
2021/11/29 00:27:25;0.00;0.00;0.62;0.00;0.00;0.62;1.93;1.20;;;20.20;25.90;;;;;;2246723;61;20755;-69
2021/11/29 00:30:14;0.00;0.00;0.62;0.00;0.00;0.62;2.30;1.20;;;20.10;25.80;;;;;;2245417;61;20386;-68
2021/11/29 00:33:00;0.00;0.00;0.62;0.00;0.00;0.62;3.60;1.50;;;20.10;25.90;;;;;;2246220;61;20453;-67
2021/11/29 00:35:46;0.00;0.00;0.62;0.00;0.00;0.62;1.60;1.17;;;20.00;25.80;;;;;;2246440;61;20624;-67
2021/11/29 00:38:32;0.00;0.00;0.62;0.00;0.00;0.62;2.03;1.33;;;20.00;25.80;;;;;;2245077;61;20405;-69
2021/11/29 00:41:17;0.00;0.00;0.62;0.00;0.00;0.62;1.80;1.00;;;20.00;25.90;;;;;;2245962;61;20614;-67
2021/11/29 00:44:05;0.00;0.00;0.62;0.00;0.00;0.62;1.50;1.00;;;20.00;25.90;;;;;;2246209;61;20346;-67
2021/11/29 00:46:50;0.00;0.00;0.62;0.00;0.00;0.62;1.63;1.20;;;20.00;25.90;;;;;;2245864;61;20373;-68
2021/11/29 00:49:37;0.00;0.00;0.62;0.00;0.00;0.62;1.97;1.30;;;19.90;25.80;;;;;;2246167;61;20745;-68
2021/11/29 00:52:22;0.00;0.00;0.62;0.00;0.00;0.62;2.83;1.37;;;19.90;25.70;;;;;;2245102;61;20425;-67
2021/11/29 00:55:10;0.00;0.00;0.62;0.00;0.00;0.62;1.63;1.17;;;19.90;25.70;;;;;;2246041;61;20353;-67
2021/11/29 00:57:55;0.00;0.00;0.62;0.00;0.00;0.62;1.63;1.20;;;19.90;25.70;;;;;;2246270;61;20751;-67
2021/11/29 01:00:43;0.00;0.00;0.62;0.00;0.00;0.62;3.33;1.50;;;19.80;25.60;;;;;;2245485;61;20358;-67
2021/11/29 01:03:29;0.00;0.00;0.62;0.00;0.00;0.62;2.60;1.53;;;19.80;25.60;;;;;;2246019;61;20385;-67
2021/11/29 01:06:15;0.00;0.00;0.62;0.00;0.00;0.62;1.90;1.40;;;19.80;25.70;;;;;;2246100;61;20361;-67
2021/11/29 01:09:01;0.00;0.00;0.62;0.00;0.00;0.62;1.43;1.10;;;19.80;25.70;;;;;;2245759;61;20480;-67
2021/11/29 01:11:47;0.00;0.00;0.62;0.00;0.00;0.62;2.20;1.23;;;19.70;25.60;;;;;;2246045;61;20381;-67
2021/11/29 01:14:32;0.00;0.00;0.62;0.00;0.00;0.62;2.20;1.17;;;19.70;25.50;;;;;;2245426;61;20357;-67
2021/11/29 01:17:20;0.00;0.00;0.62;0.00;0.00;0.62;2.23;1.00;;;19.60;25.50;;;;;;2245959;61;20358;-67
2021/11/29 01:20:08;0.00;0.00;0.62;0.00;0.00;0.62;2.00;1.10;;;19.60;25.50;;;;;;2246031;61;20346;-66
2021/11/29 01:22:53;0.00;0.00;0.62;0.00;0.00;0.62;1.60;1.20;;;19.60;25.50;;;;;;2245371;61;20397;-67
2021/11/29 01:25:39;0.00;0.00;0.62;0.00;0.00;0.62;3.13;1.17;;;19.60;25.50;;;;;;2245986;61;20421;-67
2021/11/29 01:28:25;0.00;0.00;0.62;0.00;0.00;0.62;3.40;1.10;;;19.50;25.50;;;;;;2246085;61;20366;-66
2021/11/29 01:31:11;0.00;0.00;0.62;0.00;0.00;0.62;1.93;1.00;;;19.50;25.40;;;;;;2245637;61;20401;-68
2021/11/29 01:33:58;0.00;0.00;0.62;0.00;0.00;0.62;1.63;1.10;;;19.50;25.40;;;;;;2245462;61;20365;-68
2021/11/29 01:36:45;0.00;0.00;0.62;0.00;0.00;0.62;2.10;1.57;;;19.50;25.40;;;;;;2245304;61;20738;-67
2021/11/29 01:39:31;0.00;0.00;0.62;0.00;0.00;0.62;2.53;1.07;;;19.40;25.30;;;;;;2245449;61;20718;-66
2021/11/29 01:42:17;0.00;0.00;0.62;0.00;0.00;0.62;2.17;1.30;;;19.40;25.40;;;;;;2245849;61;20401;-67
2021/11/29 01:45:05;0.00;0.00;0.62;0.00;0.00;0.62;2.47;1.10;;;19.30;25.30;;;;;;2245088;61;20417;-68
2021/11/29 01:47:51;0.00;0.00;0.62;0.00;0.00;0.62;2.27;0.97;;;19.30;25.30;;;;;;2245880;61;20413;-66
2021/11/29 01:50:40;0.00;0.00;0.62;0.00;0.00;0.62;2.70;1.00;;;19.30;25.40;;;;;;2245973;61;20382;-67
2021/11/29 01:53:28;0.00;0.00;0.62;0.00;0.00;0.62;1.40;0.90;;;19.30;25.50;;;;;;2245720;61;20369;-67
2021/11/29 01:56:14;0.00;0.00;0.62;0.00;0.00;0.62;1.63;1.00;;;19.30;25.50;;;;;;2245884;61;20417;-67
2021/11/29 01:59:01;0.00;0.00;0.62;0.00;0.00;0.62;2.47;1.20;;;19.20;25.40;;;;;;2245230;61;20353;-67
2021/11/29 02:01:47;0.00;0.00;0.62;0.00;0.00;0.62;1.40;0.90;;;19.30;25.50;;;;;;2242756;61;20787;-67
2021/11/29 02:04:33;0.00;0.00;0.62;0.00;0.00;0.62;1.93;1.10;;;19.20;25.40;;;;;;2246027;61;20722;-67
2021/11/29 02:07:21;0.00;0.00;0.62;0.00;0.00;0.62;1.73;1.07;;;19.20;25.50;;;;;;2245099;61;20405;-67
2021/11/29 02:10:08;0.00;0.00;0.62;0.00;0.00;0.62;2.03;1.13;;;19.20;25.50;;;;;;2245651;61;20425;-67
2021/11/29 02:12:55;0.00;0.00;0.62;0.00;0.00;0.62;2.23;1.10;;;19.20;25.50;;;;;;2245947;61;20397;-67
2021/11/29 02:15:40;0.00;0.00;0.62;0.00;0.00;0.62;1.90;1.10;;;19.20;25.50;;;;;;2245573;61;20750;-68
2021/11/29 02:18:29;0.00;0.00;0.62;0.00;0.00;0.62;1.70;1.03;;;19.10;25.50;;;;;;2245743;61;20353;-68
2021/11/29 02:21:19;0.00;0.00;0.62;0.00;0.00;0.62;1.50;0.90;;;19.10;25.50;;;;;;2244970;61;20385;-68
2021/11/29 02:24:07;0.00;0.00;0.62;0.00;0.00;0.62;1.60;1.00;;;19.10;25.50;;;;;;2245801;61;20471;-66
2021/11/29 02:26:53;0.00;0.00;0.62;0.00;0.00;0.62;1.57;0.90;;;19.10;25.50;;;;;;2245610;61;20385;-66
2021/11/29 02:29:41;0.00;0.00;0.62;0.00;0.00;0.62;1.57;1.07;;;19.10;25.50;;;;;;2245052;61;20416;-67
2021/11/29 02:32:26;0.00;0.00;0.62;0.00;0.00;0.62;1.70;1.23;;;19.10;25.50;;;;;;2245696;61;20425;-67
2021/11/29 02:35:12;0.00;0.00;0.62;0.00;0.00;0.62;2.23;1.10;;;19.10;25.60;;;;;;2245713;61;20374;-67
2021/11/29 02:37:58;0.00;0.00;0.62;0.00;0.00;0.62;1.80;1.10;;;19.10;25.50;;;;;;2245637;61;20440;-67
2021/11/29 02:40:42;0.00;0.00;0.62;0.00;0.00;0.62;1.80;1.00;;;19.10;25.60;;;;;;2245578;61;20409;-67
2021/11/29 02:43:27;0.00;0.00;0.62;0.00;0.00;0.62;1.50;0.90;;;19.10;25.60;;;;;;2244983;61;20400;-66
2021/11/29 02:46:13;0.00;0.00;0.62;0.00;0.00;0.62;2.40;1.00;;;19.10;25.60;;;;;;2245740;61;20413;-68
2021/11/29 02:49:00;0.00;0.00;0.62;0.00;0.00;0.62;2.63;1.03;;;19.00;25.50;;;;;;2245741;61;20410;-68
2021/11/29 02:51:48;0.00;0.00;0.62;0.00;0.00;0.62;3.20;1.30;;;19.00;25.50;;;;;;2244993;61;20382;-68
2021/11/29 02:54:36;0.00;0.00;0.62;0.00;0.00;0.62;2.67;1.03;;;19.00;25.50;;;;;;2245724;61;20401;-67
2021/11/29 02:57:22;0.00;0.00;0.62;0.00;0.00;0.62;1.30;0.80;;;19.00;25.50;;;;;;2245653;61;20481;-68
2021/11/29 03:00:10;0.00;0.00;0.62;0.00;0.00;0.62;1.57;0.90;;;19.00;25.60;;;;;;2245149;61;20393;-68
2021/11/29 03:03:04;0.00;0.00;0.62;0.00;0.00;0.62;1.33;0.80;;;19.00;25.60;;;;;;2245639;61;20435;-68
2021/11/29 03:05:49;0.00;0.00;0.62;0.00;0.00;0.62;1.20;0.80;;;19.00;25.60;;;;;;2245170;61;20357;-68
2021/11/29 03:08:34;0.00;0.00;0.62;0.00;0.00;0.62;1.63;0.80;;;19.00;25.60;;;;;;2245818;61;20365;-69
2021/11/29 03:11:21;0.00;0.00;0.62;0.00;0.00;0.62;3.10;1.20;;;19.00;25.60;;;;;;2245159;61;20482;-67
2021/11/29 03:14:07;0.00;0.00;0.62;0.00;0.00;0.62;1.30;0.87;;;18.90;25.50;;;;;;2245170;61;20373;-67
2021/11/29 03:16:54;0.00;0.00;0.62;0.00;0.00;0.62;1.60;1.10;;;19.00;25.70;;;;;;2245599;61;20409;-67
2021/11/29 03:19:41;0.00;0.00;0.62;0.00;0.00;0.62;1.60;0.80;;;18.90;25.60;;;;;;2245909;61;20554;-68
2021/11/29 03:22:26;0.00;0.00;0.62;0.00;0.00;0.62;1.70;1.07;;;18.90;25.60;;;;;;2245682;61;20380;-68
2021/11/29 03:25:11;0.00;0.00;0.62;0.00;0.00;0.62;1.40;0.93;;;18.90;25.60;;;;;;2245529;61;20593;-68
2021/11/29 03:27:58;0.00;0.00;0.62;0.00;0.00;0.62;1.40;0.90;;;18.90;25.60;;;;;;2245067;61;20361;-68
2021/11/29 03:30:42;0.00;0.00;0.62;0.00;0.00;0.62;2.30;1.00;;;18.90;25.60;;;;;;2245089;61;20418;-68
2021/11/29 03:33:27;0.00;0.00;0.62;0.00;0.00;0.62;1.63;1.00;;;18.90;25.60;;;;;;2245687;61;20618;-68
2021/11/29 03:36:13;0.00;0.00;0.62;0.00;0.00;0.62;1.50;0.90;;;18.90;25.60;;;;;;2241843;61;20357;-68
2021/11/29 03:39:00;0.00;0.00;0.62;0.00;0.00;0.62;1.40;0.80;;;18.90;25.60;;;;;;2245371;61;20369;-68
2021/11/29 03:41:47;0.00;0.00;0.62;0.00;0.00;0.62;2.03;1.03;;;18.90;25.60;;;;;;2245668;61;20386;-67
2021/11/29 03:44:37;0.00;0.00;0.62;0.00;0.00;0.62;2.20;1.20;;;18.90;25.60;;;;;;2245708;61;20378;-68
2021/11/29 03:47:22;0.00;0.00;0.62;0.00;0.00;0.62;1.90;0.90;;;18.90;25.60;;;;;;2245408;61;20369;-69
2021/11/29 03:50:08;0.00;0.00;0.62;0.00;0.00;0.62;2.77;1.10;;;18.90;25.60;;;;;;2244985;61;20389;-68
2021/11/29 03:52:53;0.00;0.00;0.62;0.00;0.00;0.62;3.60;1.10;;;18.90;25.60;;;;;;2245436;61;20350;-67
2021/11/29 03:55:38;0.00;0.00;0.62;0.00;0.00;0.62;1.47;0.90;;;18.90;25.60;;;;;;2245806;61;20369;-67
2021/11/29 03:58:23;0.00;0.00;0.62;0.00;0.00;0.62;1.47;0.90;;;18.80;26.00;;;;;;2244940;61;20365;-67
2021/11/29 04:01:09;0.00;0.00;0.62;0.00;0.00;0.62;1.40;1.00;;;18.80;25.50;;;;;;2245431;61;20374;-68
2021/11/29 04:03:54;0.00;0.00;0.62;0.00;0.00;0.62;2.83;0.80;;;18.80;25.50;;;;;;2245759;61;20729;-68
2021/11/29 04:06:39;0.00;0.00;0.62;0.00;0.00;0.62;2.00;0.90;;;18.80;25.50;;;;;;2246147;61;20365;-66
2021/11/29 04:09:24;0.00;0.00;0.62;0.00;0.00;0.62;2.37;1.07;;;18.80;25.60;;;;;;2245906;61;20390;-67
2021/11/29 04:12:09;0.00;0.00;0.62;0.00;0.00;0.62;2.43;0.90;;;18.80;25.60;;;;;;2245611;61;20462;-68
2021/11/29 04:14:54;0.00;0.00;0.62;0.00;0.00;0.62;3.10;1.00;;;18.80;25.50;;;;;;2246132;61;20370;-68
2021/11/29 04:17:40;0.00;0.00;0.62;0.00;0.00;0.62;1.93;0.93;;;18.80;26.10;;;;;;2246236;61;20353;-68
2021/11/29 04:20:25;0.00;0.00;0.62;0.00;0.00;0.62;1.60;1.03;;;18.80;25.60;;;;;;2245396;61;20366;-68
2021/11/29 04:23:10;0.00;0.00;0.62;0.00;0.00;0.62;2.03;0.97;;;18.80;25.60;;;;;;2246014;61;20442;-68
2021/11/29 04:26:01;0.00;0.00;0.62;0.00;0.00;0.62;1.47;0.83;;;18.70;25.50;;;;;;2246237;61;20675;-68
2021/11/29 04:28:49;0.00;0.00;0.62;0.00;0.00;0.62;1.90;1.30;;;18.70;25.50;;;;;;2245852;61;20357;-69
2021/11/29 04:31:34;0.00;0.00;0.62;0.00;0.00;0.62;1.80;1.37;;;18.70;25.60;;;;;;2246224;61;20480;-68
2021/11/29 04:34:20;0.00;0.00;0.62;0.00;0.00;0.62;1.90;1.00;;;18.70;25.50;;;;;;2245819;61;20433;-68
2021/11/29 04:37:05;0.00;0.00;0.62;0.00;0.00;0.62;2.73;1.20;;;18.70;25.60;;;;;;2246111;61;20683;-68
2021/11/29 04:39:50;0.00;0.00;0.62;0.00;0.00;0.62;1.70;1.10;;;18.70;25.60;;;;;;2246210;61;20381;-68
2021/11/29 04:42:35;0.00;0.00;0.62;0.00;0.00;0.62;1.43;1.00;;;18.70;25.50;;;;;;2245226;61;20389;-69
2021/11/29 04:45:20;0.00;0.00;0.62;0.00;0.00;0.62;2.70;1.10;;;18.70;25.60;;;;;;2246013;61;20384;-68
2021/11/29 04:48:06;0.00;0.00;0.62;0.00;0.00;0.62;1.70;0.90;;;18.60;25.50;;;;;;2243336;61;20366;-68
2021/11/29 04:50:52;0.00;0.00;0.62;0.00;0.00;0.62;1.90;1.30;;;18.60;25.50;;;;;;2241510;61;20402;-68
2021/11/29 04:53:40;0.00;0.00;0.62;0.00;0.00;0.62;2.00;1.00;;;18.60;25.50;;;;;;2242102;62;20393;-68
2021/11/29 04:56:25;0.00;0.00;0.62;0.00;0.00;0.62;1.90;1.13;;;18.60;25.50;;;;;;2241408;62;20371;-68
2021/11/29 04:59:10;0.00;0.00;0.62;0.00;0.00;0.62;1.73;1.10;;;18.60;25.60;;;;;;2242092;62;20351;-68
2021/11/29 05:01:55;0.00;0.00;0.62;0.00;0.00;0.62;2.50;0.90;;;18.60;25.60;;;;;;2242231;61;20417;-68
2021/11/29 05:04:45;0.00;0.00;0.62;0.00;0.00;0.62;1.90;1.20;;;18.60;25.60;;;;;;2241416;62;20378;-68
2021/11/29 05:07:31;0.00;0.00;0.62;0.00;0.00;0.62;2.63;1.23;;;18.60;25.60;;;;;;2241940;62;20355;-68
2021/11/29 05:10:18;0.00;0.00;0.62;0.00;0.00;0.62;3.20;1.20;;;18.60;25.60;;;;;;2242063;62;20387;-68
2021/11/29 05:13:03;0.00;0.00;0.62;0.00;0.00;0.62;2.70;1.40;;;18.60;25.60;;;;;;2241732;62;20359;-68
2021/11/29 05:15:48;0.00;0.00;0.62;0.00;0.00;0.62;2.17;1.27;;;18.60;25.60;;;;;;2241825;62;20391;-68
2021/11/29 05:18:33;0.00;0.00;0.62;0.00;0.00;0.62;2.53;1.70;;;18.60;25.60;;;;;;2241324;62;20365;-68
2021/11/29 05:21:18;0.00;0.00;0.62;0.00;0.00;0.62;1.63;1.40;;;18.60;25.70;;;;;;2242015;61;20374;-67
2021/11/29 05:24:05;0.00;0.00;0.62;0.00;0.00;0.62;1.70;1.20;;;18.60;25.60;;;;;;2241830;62;20363;-69
2021/11/29 05:26:50;0.00;0.00;0.62;0.00;0.00;0.62;1.40;1.00;;;18.60;25.60;;;;;;2241385;62;20363;-68
2021/11/29 05:29:35;0.00;0.00;0.62;0.00;0.00;0.62;3.07;1.50;;;18.60;25.60;;;;;;2241975;62;20402;-68
2021/11/29 05:32:20;0.00;0.00;0.62;0.00;0.00;0.62;2.50;1.60;;;18.50;25.50;;;;;;2241991;61;20378;-68
2021/11/29 05:35:06;0.00;0.00;0.62;0.00;0.00;0.62;2.77;1.43;;;18.50;25.50;;;;;;2241524;62;20395;-68
2021/11/29 05:37:51;0.00;0.00;0.62;0.00;0.00;0.62;2.27;1.30;;;18.50;25.50;;;;;;2241909;62;20350;-69
2021/11/29 05:40:37;0.00;0.00;0.62;0.00;0.00;0.62;1.43;1.07;;;18.60;25.60;;;;;;2241487;61;20370;-69
2021/11/29 05:43:22;0.00;0.00;0.62;0.00;0.00;0.62;1.90;1.30;;;18.60;25.60;;;;;;2241996;62;20699;-68
2021/11/29 05:46:10;0.00;0.00;0.62;0.00;0.00;0.62;3.80;1.17;;;18.50;25.50;;;;;;2241879;62;20426;-68
2021/11/29 05:48:56;0.00;0.00;0.62;0.00;0.00;0.62;2.63;1.30;;;18.50;25.50;;;;;;2241271;62;20358;-67
2021/11/29 05:51:41;0.00;0.00;0.62;0.00;0.00;0.62;2.10;1.27;;;18.60;25.60;;;;;;2241844;61;20397;-68
2021/11/29 05:54:26;0.00;0.00;0.62;0.00;0.00;0.62;3.10;1.47;;;18.60;25.60;;;;;;2242016;62;20358;-68
2021/11/29 05:57:13;0.00;0.00;0.62;0.00;0.00;0.62;2.50;1.60;;;18.50;25.50;;;;;;2241490;62;20367;-68
2021/11/29 05:59:58;0.00;0.00;0.62;0.00;0.00;0.62;2.00;1.40;;;18.50;25.50;;;;;;2241913;62;20342;-68
2021/11/29 06:02:43;0.00;0.00;0.62;0.00;0.00;0.62;2.67;1.40;;;18.50;26.10;;;;;;2241786;62;20434;-69
2021/11/29 06:05:29;0.00;0.00;0.62;0.00;0.00;0.62;3.80;1.23;;;18.50;25.50;;;;;;2241937;62;20734;-68
2021/11/29 06:08:13;0.00;0.00;0.62;0.00;0.00;0.62;2.00;1.43;;;18.50;25.50;;;;;;2241803;62;20354;-68
2021/11/29 06:10:59;0.00;0.00;0.62;0.00;0.00;0.62;1.80;1.40;;;18.50;25.50;;;;;;2241235;61;20394;-68
2021/11/29 06:13:45;0.00;0.00;0.62;0.00;0.00;0.62;3.63;1.67;;;18.50;25.50;;;;;;2241778;62;20807;-68
2021/11/29 06:16:30;0.00;0.00;0.62;0.00;0.00;0.62;1.80;1.30;;;18.50;25.50;;;;;;2241848;62;20492;-68
2021/11/29 06:19:14;0.00;0.00;0.62;0.00;0.00;0.62;2.30;1.50;;;18.50;25.50;;;;;;2241096;62;20367;-68
2021/11/29 06:21:59;0.00;0.00;0.62;0.00;0.00;0.62;3.07;1.60;;;18.50;25.50;;;;;;2241738;61;20743;-67
2021/11/29 06:24:44;0.00;0.00;0.62;0.00;0.00;0.62;2.43;1.57;;;18.50;25.50;;;;;;2241580;62;20406;-66
2021/11/29 06:27:28;0.00;0.00;0.62;0.00;0.00;0.62;2.80;1.57;;;18.50;25.50;;;;;;2241527;62;20390;-67
2021/11/29 06:30:16;0.00;0.00;0.62;0.00;0.00;0.62;2.50;1.80;;;18.50;25.50;;;;;;2241292;62;20483;-68
2021/11/29 06:33:02;0.00;0.00;0.62;0.00;0.00;0.62;2.40;1.97;;;18.50;25.50;;;;;;2241058;62;20771;-68
2021/11/29 06:35:46;0.00;0.00;0.62;0.00;0.00;0.62;2.33;1.83;;;18.50;25.50;;;;;;2241777;62;20359;-67
2021/11/29 06:38:32;0.00;0.00;0.62;0.00;0.00;0.62;3.63;1.80;;;18.50;25.50;;;;;;2241874;62;20391;-67
2021/11/29 06:41:19;0.00;0.00;0.62;0.00;0.00;0.62;2.80;1.80;;;18.50;25.50;;;;;;2240857;61;20398;-68
2021/11/29 06:44:05;0.00;0.00;0.62;0.00;0.00;0.62;1.97;1.73;;;18.50;25.50;;;;;;2241562;61;20374;-66
2021/11/29 06:46:51;0.00;0.00;0.62;0.00;0.00;0.62;2.80;2.50;;;18.50;25.50;;;;;;2241805;62;20431;-67
2021/11/29 06:49:36;0.00;0.00;0.62;0.00;0.00;0.62;4.20;2.70;;;18.50;25.50;;;;;;2241578;62;20354;-67
2021/11/29 06:52:21;0.00;0.00;0.62;0.00;0.00;0.62;4.77;2.67;;;18.50;25.50;;;;;;2241566;61;20398;-68
2021/11/29 06:55:08;0.00;0.00;0.62;0.00;0.00;0.62;3.50;2.33;;;18.50;25.50;;;;;;2240898;62;20623;-68
2021/11/29 06:57:53;0.00;0.00;0.62;0.00;0.00;0.62;4.70;2.90;;;18.50;25.50;;;;;;2241552;62;20587;-69
2021/11/29 07:00:37;0.00;0.00;0.62;0.00;0.00;0.62;4.13;2.57;;;18.50;25.50;;;;;;2241229;62;20807;-69
2021/11/29 07:03:23;0.00;0.00;0.62;0.00;0.00;0.62;3.67;2.63;;;18.50;25.50;;;;;;2240771;62;20374;-69
2021/11/29 07:06:08;0.00;0.00;0.62;0.00;0.00;0.62;4.30;3.20;;;18.50;25.50;;;;;;2241383;62;20362;-69
2021/11/29 07:08:54;0.00;0.00;0.62;0.00;0.00;0.62;4.70;2.60;;;18.50;25.50;;;;;;2241572;62;20355;-67
2021/11/29 07:11:39;0.00;0.00;0.62;0.00;0.00;0.62;8.07;3.50;;;18.50;25.50;;;;;;2241186;61;20474;-68
2021/11/29 07:14:25;0.00;0.00;0.62;0.00;0.00;0.62;4.40;2.50;;;18.50;25.50;;;;;;2241527;62;20370;-68
2021/11/29 07:17:10;0.00;0.00;0.62;0.00;0.00;0.62;4.30;2.73;;;18.50;25.50;;;;;;2240718;62;20579;-69
2021/11/29 07:19:56;0.00;0.00;0.62;0.00;0.00;0.62;6.30;2.80;;;18.50;25.50;;;;;;2241435;62;20371;-68
2021/11/29 07:22:41;0.00;0.00;0.62;0.00;0.00;0.62;4.57;2.63;;;18.40;25.50;;;;;;2241657;62;20459;-68
2021/11/29 07:25:27;0.00;0.00;0.62;0.00;0.00;0.62;2.40;2.20;;;18.40;25.50;;;;;;2240773;62;20374;-69
2021/11/29 07:28:12;0.00;0.00;0.62;0.00;0.00;0.62;2.97;2.47;;;18.50;25.50;;;;;;2241484;62;20362;-68
2021/11/29 07:30:56;0.00;0.00;0.62;0.00;0.00;0.62;4.00;3.13;;;18.40;25.50;;;;;;2241708;61;20402;-69
2021/11/29 07:33:41;0.00;0.00;0.62;0.00;0.00;0.62;2.90;2.40;;;18.40;25.50;;;;;;2241055;62;20359;-67
2021/11/29 07:36:27;0.00;0.00;0.62;0.00;0.00;0.62;4.00;2.40;;;18.40;25.50;;;;;;2241527;62;20363;-66
2021/11/29 07:39:12;0.00;0.00;0.62;0.00;0.00;0.62;4.00;3.17;;;18.40;25.50;;;;;;2241128;61;20409;-67
2021/11/29 07:41:59;0.00;0.00;0.62;0.00;0.00;0.62;3.50;2.83;;;18.40;25.50;;;;;;2242332;61;20433;-67
2021/11/29 07:44:44;0.00;0.00;0.62;0.00;0.00;0.62;3.87;2.73;;;18.40;25.50;;;;;;2242468;62;20390;-67
2021/11/29 07:47:29;0.00;0.00;0.62;0.00;0.00;0.62;4.57;3.77;;;18.40;25.50;;;;;;2241355;62;20385;-68
2021/11/29 07:50:16;0.00;0.00;0.62;0.00;0.00;0.62;3.00;2.67;;;18.40;25.50;;;;;;2241919;62;20796;-69
2021/11/29 07:53:04;0.00;0.00;0.62;0.00;0.00;0.62;3.20;2.90;;;18.40;25.50;;;;;;2242408;62;20767;-67
2021/11/29 07:55:48;0.00;0.00;0.62;0.00;0.00;0.62;4.30;2.37;;;18.40;25.50;;;;;;2241255;62;20726;-67
2021/11/29 07:58:34;0.00;0.00;0.62;0.00;0.00;0.62;4.13;3.03;;;18.40;25.50;;;;;;2241992;62;20441;-67
2021/11/29 08:01:19;0.00;0.00;0.62;0.00;0.00;0.62;4.10;3.30;;;18.40;25.50;;;;;;2241384;61;20711;-68
2021/11/29 08:04:04;0.00;0.00;0.62;0.00;0.00;0.62;3.30;2.90;;;18.40;25.50;;;;;;2242270;62;20358;-69
2021/11/29 08:06:49;0.00;0.00;0.62;0.00;0.00;0.62;3.80;3.20;;;18.40;25.50;;;;;;2242281;62;20377;-69
2021/11/29 08:09:35;0.00;0.00;0.62;0.00;0.00;0.62;4.27;3.50;;;18.40;25.50;;;;;;2241207;62;20410;-69
2021/11/29 08:12:19;0.00;0.00;0.62;0.00;0.00;0.62;3.70;2.93;;;18.40;25.50;;;;;;2242072;61;20386;-69
2021/11/29 08:15:06;0.00;0.00;0.62;0.00;0.00;0.62;3.90;3.03;;;18.40;25.50;;;;;;2242209;62;20366;-69
2021/11/29 08:17:51;0.00;0.00;0.62;0.00;0.00;0.62;3.07;2.60;;;18.40;25.50;;;;;;2241525;62;20358;-68
2021/11/29 08:20:36;0.00;0.00;0.62;0.00;0.00;0.62;3.77;3.33;;;18.30;25.40;;;;;;2241929;61;20434;-68
2021/11/29 08:23:21;0.00;0.00;0.62;0.00;0.00;0.62;3.80;2.87;;;18.40;25.50;;;;;;2241553;62;20635;-68
2021/11/29 08:26:07;0.00;0.00;0.62;0.00;0.00;0.62;4.43;2.97;;;18.30;25.40;;;;;;2242099;62;20394;-69
2021/11/29 08:28:51;0.00;0.00;0.62;0.00;0.00;0.62;4.20;2.60;;;18.30;25.90;;;;;;2242033;62;20410;-67
2021/11/29 08:31:36;0.00;0.00;0.62;0.00;0.00;0.62;3.40;2.70;;;18.30;25.50;;;;;;2240909;61;20398;-69
2021/11/29 08:34:21;0.00;0.00;0.62;0.00;0.00;0.62;3.03;2.70;;;18.30;25.50;;;;;;2242107;62;20447;-70
2021/11/29 08:37:06;0.00;0.00;0.62;0.00;0.00;0.62;2.50;2.30;;;18.30;25.60;;;;;;2242133;62;20722;-68
2021/11/29 08:39:52;0.00;0.00;0.62;0.00;0.00;0.62;3.40;3.10;;;18.30;25.60;;;;;;2241107;62;20358;-68
2021/11/29 08:42:38;0.00;0.00;0.62;0.00;0.00;0.62;4.20;3.10;;;18.30;26.20;;;;;;2241933;62;20674;-67
2021/11/29 08:45:23;0.00;0.00;0.62;0.00;0.00;0.62;3.73;2.70;;;18.30;25.70;;;;;;2241496;62;20550;-68
2021/11/29 08:48:10;0.00;0.00;0.62;0.00;0.00;0.62;3.77;2.77;;;18.30;25.60;;;;;;2242136;61;20405;-70
2021/11/29 08:50:56;0.00;0.00;0.62;0.00;0.00;0.62;3.23;2.60;;;18.30;25.60;;;;;;2241760;61;20770;-64
2021/11/29 08:53:41;0.00;0.00;0.62;0.00;0.00;0.62;3.00;2.70;;;18.30;25.60;;;;;;2241016;62;20714;-67
2021/11/29 08:56:25;0.00;0.00;0.62;0.00;0.00;0.62;3.43;2.73;;;18.30;25.70;;;;;;2241872;62;20411;-67
2021/11/29 08:59:12;0.00;0.00;0.62;0.00;0.00;0.62;2.40;2.20;;;18.30;25.70;;;;;;2241575;62;20409;-68
2021/11/29 09:01:58;0.00;0.00;0.62;0.00;0.00;0.62;3.43;2.73;;;18.30;25.70;;;;;;2240925;61;20378;-68
2021/11/29 09:04:42;0.00;0.00;0.62;0.00;0.00;0.62;2.67;2.33;;;18.30;25.70;;;;;;2241504;62;20407;-67
2021/11/29 09:07:27;0.00;0.00;0.62;0.00;0.00;0.62;3.10;2.67;;;18.30;25.60;;;;;;2241794;62;20580;-67
2021/11/29 09:10:13;0.00;0.00;0.62;0.00;0.00;0.62;2.93;2.63;;;18.30;25.60;;;;;;2241780;62;20406;-67
2021/11/29 09:12:58;0.00;0.00;0.62;0.00;0.00;0.62;3.97;3.13;;;18.30;25.60;;;;;;2241917;62;20657;-68
2021/11/29 09:15:45;0.00;0.00;0.62;0.00;0.00;0.62;3.03;2.50;;;18.40;25.70;;;;;;2240853;62;20366;-67
2021/11/29 09:18:31;0.00;0.00;0.62;0.00;0.00;0.62;4.07;2.60;;;18.40;25.70;;;;;;2241809;62;20598;-67
2021/11/29 09:21:19;0.00;0.00;0.62;0.00;0.00;0.62;4.90;2.90;;;18.40;25.70;;;;;;2241486;61;20589;-67
2021/11/29 09:24:04;0.00;0.00;0.62;0.00;0.00;0.62;4.60;2.90;;;18.40;25.70;;;;;;2240958;62;20744;-68
2021/11/29 09:26:49;0.00;0.00;0.62;0.00;0.00;0.62;3.63;2.97;;;18.40;25.60;;;;;;2241863;62;20374;-68
2021/11/29 09:29:35;0.00;0.00;0.62;0.00;0.00;0.62;3.07;2.77;;;18.40;25.70;;;;;;2241922;62;20595;-68
2021/11/29 09:32:23;0.00;0.00;0.62;0.00;0.00;0.62;4.13;3.53;;;18.40;25.60;;;;;;2241677;61;20390;-67
2021/11/29 09:35:11;0.00;0.00;0.62;0.00;0.00;0.62;3.33;2.70;;;18.40;25.60;;;;;;2241880;62;20412;-68
2021/11/29 09:37:57;0.00;0.00;0.62;0.00;0.00;0.62;3.60;3.20;;;18.40;25.60;;;;;;2240528;62;20399;-67
2021/11/29 09:40:43;0.00;0.00;0.62;0.00;0.00;0.62;3.80;2.80;;;18.40;25.70;;;;;;2241561;61;20399;-67
2021/11/29 09:43:28;0.00;0.00;0.62;0.00;0.00;0.62;4.00;2.50;;;18.40;25.60;;;;;;2241909;62;20402;-69
2021/11/29 09:46:13;0.00;0.00;0.62;0.00;0.00;0.62;2.67;2.13;;;18.50;25.80;;;;;;2241252;62;20362;-66
2021/11/29 09:49:00;0.00;0.00;0.62;0.00;0.00;0.62;3.20;2.33;;;18.40;25.80;;;;;;2241692;62;20370;-71
2021/11/29 09:51:46;0.00;0.00;0.62;0.00;0.00;0.62;3.30;2.43;;;18.50;25.90;;;;;;2241807;61;20399;-68
2021/11/29 09:54:31;0.00;0.00;0.62;0.00;0.00;0.62;2.37;1.97;;;18.50;25.90;;;;;;2241616;62;20770;-70
2021/11/29 09:57:17;0.00;0.00;0.62;0.00;0.00;0.62;2.50;1.93;;;18.50;26.00;;;;;;2241501;62;20704;-73
2021/11/29 10:00:04;0.00;0.00;0.62;0.00;0.00;0.62;3.27;2.07;;;18.50;26.00;;;;;;2244872;57;20689;-72
2021/11/29 10:02:50;0.00;0.00;0.62;0.00;0.00;0.62;2.97;2.33;;;18.50;26.00;;;;;;2240110;62;20390;-69
2021/11/29 10:05:38;0.00;0.00;0.62;0.00;0.00;0.62;2.50;2.00;;;18.50;26.00;;;;;;2242068;62;20383;-70
2021/11/29 10:08:28;0.00;0.00;0.62;0.00;0.00;0.62;2.70;2.00;;;18.60;26.70;;;;;;2240938;62;20725;-70
2021/11/29 10:11:17;0.00;0.00;0.62;0.00;0.00;0.62;2.57;2.27;;;18.60;26.20;;;;;;2241684;61;20426;-67
2021/11/29 10:14:09;0.00;0.00;0.62;0.00;0.00;0.62;4.03;2.10;;;18.60;26.20;;;;;;2241279;62;20794;-66
2021/11/29 10:17:00;0.00;0.00;0.62;0.00;0.00;0.62;1.90;1.30;;;18.60;26.20;;;;;;2241355;62;20363;-67
2021/11/29 10:19:47;0.00;0.00;0.62;0.00;0.00;0.62;2.20;1.70;;;18.60;26.20;;;;;;2241602;62;20686;-66
2021/11/29 10:22:34;0.00;0.00;0.62;0.00;0.00;0.62;2.20;1.70;;;18.70;26.20;;;;;;2240702;61;20484;-68
2021/11/29 10:25:22;0.00;0.00;0.62;0.00;0.00;0.62;2.70;1.87;;;18.70;26.20;;;;;;2241617;62;20434;-70
2021/11/29 10:28:24;0.00;0.00;0.62;0.00;0.00;0.62;3.00;1.93;;;18.70;26.20;;;;;;2241535;62;20359;-69
2021/11/29 10:31:16;0.00;0.00;0.62;0.00;0.00;0.62;2.67;1.90;;;18.70;26.20;;;;;;2240806;61;20390;-70
2021/11/29 10:34:07;0.00;0.00;0.62;0.00;0.00;0.62;2.23;1.67;;;18.70;26.20;;;;;;2241691;62;20382;-71
2021/11/29 10:36:56;0.00;0.00;0.62;0.00;0.00;0.62;2.80;1.90;;;18.80;26.30;;;;;;2241043;62;20403;-72
2021/11/29 10:39:47;0.00;0.00;0.62;0.00;0.00;0.62;2.10;1.77;;;18.80;26.30;;;;;;2241323;62;20366;-67
2021/11/29 10:42:41;0.00;0.00;0.62;0.00;0.00;0.62;2.30;1.87;;;18.80;26.40;;;;;;2241856;61;20782;-68
2021/11/29 10:45:30;0.00;0.00;0.62;0.00;0.00;0.62;2.30;1.70;;;18.80;26.40;;;;;;2240938;62;20362;-68
2021/11/29 10:48:25;0.00;0.00;0.62;0.00;0.00;0.62;2.27;1.80;;;18.90;26.40;;;;;;2241177;62;20403;-68
2021/11/29 10:51:17;0.00;0.00;0.62;0.00;0.00;0.62;2.30;1.60;;;18.90;26.50;;;;;;2240917;61;20395;-72
2021/11/29 10:54:12;0.00;0.00;0.62;0.00;0.00;0.62;1.97;1.77;;;18.90;26.40;;;;;;2241477;62;20577;-71
2021/11/29 10:57:01;0.00;0.00;0.62;0.00;0.00;0.62;1.80;1.30;;;18.90;26.50;;;;;;2241854;62;20399;-69